sensor_id;sensor_type;location;lat;lon;timestamp;P1;durP1;ratioP1;P2;durP2;ratioP2
2177;SDS011;1095;50.992;6.798;2023-09-19T00:01:42;8.65;;;4.30;;
2177;SDS011;1095;50.992;6.798;2023-09-19T00:04:12;10.73;;;4.43;;
2177;SDS011;1095;50.992;6.798;2023-09-19T00:06:39;16.38;;;5.93;;
2177;SDS011;1095;50.992;6.798;2023-09-19T00:09:07;11.63;;;4.20;;
2177;SDS011;1095;50.992;6.798;2023-09-19T00:11:35;10.98;;;4.05;;
2177;SDS011;1095;50.992;6.798;2023-09-19T00:14:02;13.15;;;4.25;;
2177;SDS011;1095;50.992;6.798;2023-09-19T00:16:29;8.63;;;4.07;;
2177;SDS011;1095;50.992;6.798;2023-09-19T00:18:57;14.35;;;4.03;;
2177;SDS011;1095;50.992;6.798;2023-09-19T00:21:26;10.30;;;4.30;;
2177;SDS011;1095;50.992;6.798;2023-09-19T00:23:53;11.48;;;4.07;;
2177;SDS011;1095;50.992;6.798;2023-09-19T00:26:20;8.13;;;3.95;;
2177;SDS011;1095;50.992;6.798;2023-09-19T00:28:47;9.05;;;3.80;;
2177;SDS011;1095;50.992;6.798;2023-09-19T00:31:13;10.50;;;3.90;;
2177;SDS011;1095;50.992;6.798;2023-09-19T00:33:40;11.90;;;4.30;;
2177;SDS011;1095;50.992;6.798;2023-09-19T00:36:07;13.90;;;4.60;;
2177;SDS011;1095;50.992;6.798;2023-09-19T00:38:35;12.15;;;4.38;;
2177;SDS011;1095;50.992;6.798;2023-09-19T00:41:02;12.95;;;4.60;;
2177;SDS011;1095;50.992;6.798;2023-09-19T00:43:29;10.65;;;4.35;;
2177;SDS011;1095;50.992;6.798;2023-09-19T00:45:59;9.38;;;4.15;;
2177;SDS011;1095;50.992;6.798;2023-09-19T00:48:28;13.75;;;3.95;;
2177;SDS011;1095;50.992;6.798;2023-09-19T00:50:55;10.00;;;3.83;;
2177;SDS011;1095;50.992;6.798;2023-09-19T00:53:25;10.43;;;4.20;;
2177;SDS011;1095;50.992;6.798;2023-09-19T00:55:53;10.60;;;5.28;;
2177;SDS011;1095;50.992;6.798;2023-09-19T00:58:21;13.63;;;4.05;;
2177;SDS011;1095;50.992;6.798;2023-09-19T01:00:48;7.53;;;3.80;;
2177;SDS011;1095;50.992;6.798;2023-09-19T01:03:15;10.75;;;4.20;;
2177;SDS011;1095;50.992;6.798;2023-09-19T01:05:43;9.32;;;3.40;;
2177;SDS011;1095;50.992;6.798;2023-09-19T01:08:10;9.25;;;3.60;;
2177;SDS011;1095;50.992;6.798;2023-09-19T01:10:37;10.68;;;4.18;;
2177;SDS011;1095;50.992;6.798;2023-09-19T01:13:13;10.23;;;4.43;;
2177;SDS011;1095;50.992;6.798;2023-09-19T01:15:49;10.45;;;4.05;;
2177;SDS011;1095;50.992;6.798;2023-09-19T01:18:21;10.68;;;5.40;;
2177;SDS011;1095;50.992;6.798;2023-09-19T01:21:01;10.25;;;4.03;;
2177;SDS011;1095;50.992;6.798;2023-09-19T01:23:39;7.95;;;3.60;;
2177;SDS011;1095;50.992;6.798;2023-09-19T01:26:29;10.20;;;3.90;;
2177;SDS011;1095;50.992;6.798;2023-09-19T01:29:22;13.52;;;3.92;;
2177;SDS011;1095;50.992;6.798;2023-09-19T01:32:02;9.20;;;3.90;;
2177;SDS011;1095;50.992;6.798;2023-09-19T01:34:43;11.77;;;4.22;;
2177;SDS011;1095;50.992;6.798;2023-09-19T01:37:11;8.50;;;3.78;;
2177;SDS011;1095;50.992;6.798;2023-09-19T01:39:37;10.20;;;4.50;;
2177;SDS011;1095;50.992;6.798;2023-09-19T01:42:05;12.45;;;4.28;;
2177;SDS011;1095;50.992;6.798;2023-09-19T01:44:40;12.75;;;3.97;;
2177;SDS011;1095;50.992;6.798;2023-09-19T01:47:19;13.50;;;3.90;;
2177;SDS011;1095;50.992;6.798;2023-09-19T01:49:50;11.00;;;4.30;;
2177;SDS011;1095;50.992;6.798;2023-09-19T01:52:28;12.23;;;3.92;;
2177;SDS011;1095;50.992;6.798;2023-09-19T01:55:05;13.60;;;4.03;;
2177;SDS011;1095;50.992;6.798;2023-09-19T01:57:36;10.80;;;3.72;;
2177;SDS011;1095;50.992;6.798;2023-09-19T02:00:15;11.85;;;3.97;;
2177;SDS011;1095;50.992;6.798;2023-09-19T02:02:48;11.07;;;4.45;;
2177;SDS011;1095;50.992;6.798;2023-09-19T02:05:21;14.68;;;5.13;;
2177;SDS011;1095;50.992;6.798;2023-09-19T02:07:49;9.02;;;4.18;;
2177;SDS011;1095;50.992;6.798;2023-09-19T02:10:16;13.23;;;4.00;;
2177;SDS011;1095;50.992;6.798;2023-09-19T02:12:43;12.00;;;4.57;;
2177;SDS011;1095;50.992;6.798;2023-09-19T02:15:10;13.85;;;3.85;;
2177;SDS011;1095;50.992;6.798;2023-09-19T02:17:37;10.80;;;4.00;;
2177;SDS011;1095;50.992;6.798;2023-09-19T02:20:05;11.70;;;4.05;;
2177;SDS011;1095;50.992;6.798;2023-09-19T02:22:35;15.90;;;4.80;;
2177;SDS011;1095;50.992;6.798;2023-09-19T02:25:01;12.57;;;4.28;;
2177;SDS011;1095;50.992;6.798;2023-09-19T02:27:30;11.90;;;4.10;;
2177;SDS011;1095;50.992;6.798;2023-09-19T02:29:57;16.27;;;4.20;;
2177;SDS011;1095;50.992;6.798;2023-09-19T02:32:24;16.10;;;4.38;;
2177;SDS011;1095;50.992;6.798;2023-09-19T02:34:50;10.52;;;3.47;;
2177;SDS011;1095;50.992;6.798;2023-09-19T02:37:19;14.20;;;4.05;;
2177;SDS011;1095;50.992;6.798;2023-09-19T02:39:46;10.50;;;3.72;;
2177;SDS011;1095;50.992;6.798;2023-09-19T02:42:13;11.27;;;4.05;;
2177;SDS011;1095;50.992;6.798;2023-09-19T02:44:39;11.32;;;3.90;;
2177;SDS011;1095;50.992;6.798;2023-09-19T02:47:06;10.73;;;4.15;;
2177;SDS011;1095;50.992;6.798;2023-09-19T02:49:33;15.38;;;4.03;;
2177;SDS011;1095;50.992;6.798;2023-09-19T02:52:00;10.65;;;3.78;;
2177;SDS011;1095;50.992;6.798;2023-09-19T02:54:30;13.93;;;4.20;;
2177;SDS011;1095;50.992;6.798;2023-09-19T02:56:57;9.20;;;3.88;;
2177;SDS011;1095;50.992;6.798;2023-09-19T02:59:24;13.80;;;4.18;;
2177;SDS011;1095;50.992;6.798;2023-09-19T03:01:51;10.80;;;4.32;;
2177;SDS011;1095;50.992;6.798;2023-09-19T03:04:19;12.05;;;4.32;;
2177;SDS011;1095;50.992;6.798;2023-09-19T03:06:46;12.15;;;4.10;;
2177;SDS011;1095;50.992;6.798;2023-09-19T03:09:14;14.52;;;3.92;;
2177;SDS011;1095;50.992;6.798;2023-09-19T03:11:42;15.23;;;3.80;;
2177;SDS011;1095;50.992;6.798;2023-09-19T03:14:11;15.02;;;4.28;;
2177;SDS011;1095;50.992;6.798;2023-09-19T03:16:40;9.20;;;4.00;;
2177;SDS011;1095;50.992;6.798;2023-09-19T03:19:07;15.57;;;4.43;;
2177;SDS011;1095;50.992;6.798;2023-09-19T03:21:35;12.82;;;4.25;;
2177;SDS011;1095;50.992;6.798;2023-09-19T03:24:04;19.05;;;4.30;;
2177;SDS011;1095;50.992;6.798;2023-09-19T03:26:31;13.07;;;4.32;;
2177;SDS011;1095;50.992;6.798;2023-09-19T03:29:00;17.20;;;4.32;;
2177;SDS011;1095;50.992;6.798;2023-09-19T03:31:31;10.50;;;3.58;;
2177;SDS011;1095;50.992;6.798;2023-09-19T03:33:58;15.48;;;4.38;;
2177;SDS011;1095;50.992;6.798;2023-09-19T03:36:25;13.15;;;4.00;;
2177;SDS011;1095;50.992;6.798;2023-09-19T03:38:53;13.60;;;4.03;;
2177;SDS011;1095;50.992;6.798;2023-09-19T03:41:20;15.65;;;4.43;;
2177;SDS011;1095;50.992;6.798;2023-09-19T03:43:46;14.88;;;4.25;;
2177;SDS011;1095;50.992;6.798;2023-09-19T03:46:14;14.35;;;4.18;;
2177;SDS011;1095;50.992;6.798;2023-09-19T03:48:41;10.13;;;4.30;;
2177;SDS011;1095;50.992;6.798;2023-09-19T03:51:08;13.55;;;4.30;;
2177;SDS011;1095;50.992;6.798;2023-09-19T03:53:35;13.40;;;3.92;;
2177;SDS011;1095;50.992;6.798;2023-09-19T03:56:02;14.05;;;4.10;;
2177;SDS011;1095;50.992;6.798;2023-09-19T03:58:29;14.93;;;4.82;;
2177;SDS011;1095;50.992;6.798;2023-09-19T04:00:55;14.98;;;5.50;;
2177;SDS011;1095;50.992;6.798;2023-09-19T04:03:24;11.57;;;4.38;;
2177;SDS011;1095;50.992;6.798;2023-09-19T04:05:59;12.65;;;4.40;;
2177;SDS011;1095;50.992;6.798;2023-09-19T04:08:26;18.30;;;5.40;;
2177;SDS011;1095;50.992;6.798;2023-09-19T04:10:53;17.38;;;4.72;;
2177;SDS011;1095;50.992;6.798;2023-09-19T04:13:20;14.25;;;5.75;;
2177;SDS011;1095;50.992;6.798;2023-09-19T04:15:47;11.73;;;4.65;;
2177;SDS011;1095;50.992;6.798;2023-09-19T04:18:14;11.52;;;4.43;;
2177;SDS011;1095;50.992;6.798;2023-09-19T04:20:42;12.30;;;4.85;;
2177;SDS011;1095;50.992;6.798;2023-09-19T04:23:14;16.05;;;4.75;;
2177;SDS011;1095;50.992;6.798;2023-09-19T04:25:41;9.07;;;4.50;;
2177;SDS011;1095;50.992;6.798;2023-09-19T04:28:08;10.52;;;4.53;;
2177;SDS011;1095;50.992;6.798;2023-09-19T04:30:36;18.35;;;4.72;;
2177;SDS011;1095;50.992;6.798;2023-09-19T04:33:05;9.68;;;3.63;;
2177;SDS011;1095;50.992;6.798;2023-09-19T04:35:32;14.18;;;4.00;;
2177;SDS011;1095;50.992;6.798;2023-09-19T04:38:01;10.75;;;4.07;;
2177;SDS011;1095;50.992;6.798;2023-09-19T04:40:28;13.85;;;4.53;;
2177;SDS011;1095;50.992;6.798;2023-09-19T04:42:55;12.07;;;3.97;;
2177;SDS011;1095;50.992;6.798;2023-09-19T04:47:54;17.00;;;4.05;;
2177;SDS011;1095;50.992;6.798;2023-09-19T04:50:21;9.65;;;4.00;;
2177;SDS011;1095;50.992;6.798;2023-09-19T04:52:52;14.38;;;4.90;;
2177;SDS011;1095;50.992;6.798;2023-09-19T04:55:21;12.38;;;3.88;;
2177;SDS011;1095;50.992;6.798;2023-09-19T04:57:48;16.08;;;4.43;;
2177;SDS011;1095;50.992;6.798;2023-09-19T05:00:16;15.98;;;4.38;;
2177;SDS011;1095;50.992;6.798;2023-09-19T05:02:48;16.83;;;4.00;;
2177;SDS011;1095;50.992;6.798;2023-09-19T05:05:16;12.35;;;3.85;;
2177;SDS011;1095;50.992;6.798;2023-09-19T05:07:44;11.52;;;4.20;;
2177;SDS011;1095;50.992;6.798;2023-09-19T05:10:11;13.88;;;3.92;;
2177;SDS011;1095;50.992;6.798;2023-09-19T05:12:39;11.55;;;4.28;;
2177;SDS011;1095;50.992;6.798;2023-09-19T05:15:07;13.65;;;4.72;;
2177;SDS011;1095;50.992;6.798;2023-09-19T05:17:34;14.65;;;5.15;;
2177;SDS011;1095;50.992;6.798;2023-09-19T05:20:07;12.07;;;3.95;;
2177;SDS011;1095;50.992;6.798;2023-09-19T05:23:01;10.85;;;4.30;;
2177;SDS011;1095;50.992;6.798;2023-09-19T05:25:30;13.13;;;4.30;;
2177;SDS011;1095;50.992;6.798;2023-09-19T05:27:59;18.08;;;4.75;;
2177;SDS011;1095;50.992;6.798;2023-09-19T05:30:28;10.85;;;3.90;;
2177;SDS011;1095;50.992;6.798;2023-09-19T05:32:55;11.60;;;4.20;;
2177;SDS011;1095;50.992;6.798;2023-09-19T05:35:22;15.25;;;4.15;;
2177;SDS011;1095;50.992;6.798;2023-09-19T05:37:50;16.27;;;4.40;;
2177;SDS011;1095;50.992;6.798;2023-09-19T05:40:17;14.88;;;4.13;;
2177;SDS011;1095;50.992;6.798;2023-09-19T05:42:44;12.45;;;3.63;;
2177;SDS011;1095;50.992;6.798;2023-09-19T05:45:13;11.20;;;3.70;;
2177;SDS011;1095;50.992;6.798;2023-09-19T05:47:47;18.27;;;3.95;;
2177;SDS011;1095;50.992;6.798;2023-09-19T05:50:14;14.13;;;4.25;;
2177;SDS011;1095;50.992;6.798;2023-09-19T05:52:41;13.65;;;3.85;;
2177;SDS011;1095;50.992;6.798;2023-09-19T05:55:09;13.07;;;4.32;;
2177;SDS011;1095;50.992;6.798;2023-09-19T05:57:36;12.50;;;4.22;;
2177;SDS011;1095;50.992;6.798;2023-09-19T06:00:07;13.52;;;4.35;;
2177;SDS011;1095;50.992;6.798;2023-09-19T06:02:37;14.60;;;3.90;;
2177;SDS011;1095;50.992;6.798;2023-09-19T06:05:05;12.52;;;4.30;;
2177;SDS011;1095;50.992;6.798;2023-09-19T06:07:35;15.15;;;4.30;;
2177;SDS011;1095;50.992;6.798;2023-09-19T06:10:02;13.40;;;4.05;;
2177;SDS011;1095;50.992;6.798;2023-09-19T06:12:32;14.13;;;4.07;;
2177;SDS011;1095;50.992;6.798;2023-09-19T06:15:02;13.32;;;4.03;;
2177;SDS011;1095;50.992;6.798;2023-09-19T06:17:30;10.82;;;3.92;;
2177;SDS011;1095;50.992;6.798;2023-09-19T06:19:58;12.95;;;4.07;;
2177;SDS011;1095;50.992;6.798;2023-09-19T06:22:25;14.32;;;4.40;;
2177;SDS011;1095;50.992;6.798;2023-09-19T06:24:52;11.23;;;4.55;;
2177;SDS011;1095;50.992;6.798;2023-09-19T06:27:19;12.52;;;3.97;;
2177;SDS011;1095;50.992;6.798;2023-09-19T06:29:47;10.88;;;4.03;;
2177;SDS011;1095;50.992;6.798;2023-09-19T06:32:13;11.77;;;4.20;;
2177;SDS011;1095;50.992;6.798;2023-09-19T06:34:40;11.77;;;4.55;;
2177;SDS011;1095;50.992;6.798;2023-09-19T06:37:09;12.95;;;3.97;;
2177;SDS011;1095;50.992;6.798;2023-09-19T06:39:36;15.05;;;4.10;;
2177;SDS011;1095;50.992;6.798;2023-09-19T06:42:03;13.10;;;3.92;;
2177;SDS011;1095;50.992;6.798;2023-09-19T06:45:02;11.73;;;4.15;;
2177;SDS011;1095;50.992;6.798;2023-09-19T06:47:50;16.42;;;4.07;;
2177;SDS011;1095;50.992;6.798;2023-09-19T06:50:26;14.63;;;4.30;;
2177;SDS011;1095;50.992;6.798;2023-09-19T07:03:15;14.18;;;5.05;;
2177;SDS011;1095;50.992;6.798;2023-09-19T07:05:56;13.93;;;4.40;;
2177;SDS011;1095;50.992;6.798;2023-09-19T07:08:31;13.13;;;4.57;;
2177;SDS011;1095;50.992;6.798;2023-09-19T07:11:15;15.20;;;4.43;;
2177;SDS011;1095;50.992;6.798;2023-09-19T07:20:00;15.15;;;4.53;;
2177;SDS011;1095;50.992;6.798;2023-09-19T07:22:36;12.02;;;3.88;;
2177;SDS011;1095;50.992;6.798;2023-09-19T07:25:10;11.93;;;4.03;;
2177;SDS011;1095;50.992;6.798;2023-09-19T07:27:58;12.13;;;4.10;;
2177;SDS011;1095;50.992;6.798;2023-09-19T07:30:41;12.77;;;4.28;;
2177;SDS011;1095;50.992;6.798;2023-09-19T07:33:30;17.13;;;5.32;;
2177;SDS011;1095;50.992;6.798;2023-09-19T07:39:36;12.73;;;3.92;;
2177;SDS011;1095;50.992;6.798;2023-09-19T07:42:35;12.27;;;4.03;;
2177;SDS011;1095;50.992;6.798;2023-09-19T07:45:07;10.95;;;4.25;;
2177;SDS011;1095;50.992;6.798;2023-09-19T07:47:48;16.23;;;5.53;;
2177;SDS011;1095;50.992;6.798;2023-09-19T07:50:33;10.70;;;3.65;;
2177;SDS011;1095;50.992;6.798;2023-09-19T07:53:21;17.35;;;4.60;;
2177;SDS011;1095;50.992;6.798;2023-09-19T07:55:52;10.77;;;4.07;;
2177;SDS011;1095;50.992;6.798;2023-09-19T07:58:39;12.65;;;3.97;;
2177;SDS011;1095;50.992;6.798;2023-09-19T08:01:17;10.75;;;3.72;;
2177;SDS011;1095;50.992;6.798;2023-09-19T08:07:02;14.27;;;4.10;;
2177;SDS011;1095;50.992;6.798;2023-09-19T08:10:05;11.77;;;4.30;;
2177;SDS011;1095;50.992;6.798;2023-09-19T08:12:38;13.73;;;4.50;;
2177;SDS011;1095;50.992;6.798;2023-09-19T08:15:11;13.20;;;4.20;;
2177;SDS011;1095;50.992;6.798;2023-09-19T08:17:39;9.77;;;3.55;;
2177;SDS011;1095;50.992;6.798;2023-09-19T08:20:06;13.68;;;4.15;;
2177;SDS011;1095;50.992;6.798;2023-09-19T08:22:41;10.48;;;3.88;;
2177;SDS011;1095;50.992;6.798;2023-09-19T08:25:09;15.77;;;3.88;;
2177;SDS011;1095;50.992;6.798;2023-09-19T08:27:39;23.15;;;5.28;;
2177;SDS011;1095;50.992;6.798;2023-09-19T08:30:06;11.48;;;4.07;;
2177;SDS011;1095;50.992;6.798;2023-09-19T08:32:33;10.13;;;3.95;;
2177;SDS011;1095;50.992;6.798;2023-09-19T08:35:01;14.40;;;3.90;;
2177;SDS011;1095;50.992;6.798;2023-09-19T08:37:29;13.90;;;3.92;;
2177;SDS011;1095;50.992;6.798;2023-09-19T08:39:56;11.85;;;3.72;;
2177;SDS011;1095;50.992;6.798;2023-09-19T08:42:22;17.02;;;4.57;;
2177;SDS011;1095;50.992;6.798;2023-09-19T08:44:50;11.15;;;3.95;;
2177;SDS011;1095;50.992;6.798;2023-09-19T08:47:22;11.07;;;4.45;;
2177;SDS011;1095;50.992;6.798;2023-09-19T08:49:58;15.32;;;4.13;;
2177;SDS011;1095;50.992;6.798;2023-09-19T08:52:40;9.10;;;4.00;;
2177;SDS011;1095;50.992;6.798;2023-09-19T08:55:10;15.02;;;3.92;;
2177;SDS011;1095;50.992;6.798;2023-09-19T08:57:38;12.20;;;5.10;;
2177;SDS011;1095;50.992;6.798;2023-09-19T09:00:14;12.45;;;3.58;;
2177;SDS011;1095;50.992;6.798;2023-09-19T09:02:42;9.57;;;3.83;;
2177;SDS011;1095;50.992;6.798;2023-09-19T09:05:11;12.27;;;4.18;;
2177;SDS011;1095;50.992;6.798;2023-09-19T09:07:39;10.07;;;4.05;;
2177;SDS011;1095;50.992;6.798;2023-09-19T09:10:07;10.35;;;4.32;;
2177;SDS011;1095;50.992;6.798;2023-09-19T09:12:34;9.52;;;3.70;;
2177;SDS011;1095;50.992;6.798;2023-09-19T09:15:05;9.68;;;3.58;;
2177;SDS011;1095;50.992;6.798;2023-09-19T09:17:33;11.95;;;3.70;;
2177;SDS011;1095;50.992;6.798;2023-09-19T09:20:00;11.20;;;3.72;;
2177;SDS011;1095;50.992;6.798;2023-09-19T09:22:30;14.48;;;4.13;;
2177;SDS011;1095;50.992;6.798;2023-09-19T09:24:57;8.45;;;3.25;;
2177;SDS011;1095;50.992;6.798;2023-09-19T09:27:28;8.82;;;3.33;;
2177;SDS011;1095;50.992;6.798;2023-09-19T09:29:56;10.18;;;3.55;;
2177;SDS011;1095;50.992;6.798;2023-09-19T09:32:24;8.23;;;3.65;;
2177;SDS011;1095;50.992;6.798;2023-09-19T09:34:54;17.55;;;3.80;;
2177;SDS011;1095;50.992;6.798;2023-09-19T09:37:23;8.80;;;3.50;;
2177;SDS011;1095;50.992;6.798;2023-09-19T09:39:55;7.90;;;3.28;;
2177;SDS011;1095;50.992;6.798;2023-09-19T09:42:29;12.40;;;3.55;;
2177;SDS011;1095;50.992;6.798;2023-09-19T09:45:15;11.88;;;4.20;;
2177;SDS011;1095;50.992;6.798;2023-09-19T09:47:45;10.25;;;3.45;;
2177;SDS011;1095;50.992;6.798;2023-09-19T09:50:27;9.13;;;3.58;;
2177;SDS011;1095;50.992;6.798;2023-09-19T09:53:19;11.20;;;3.60;;
2177;SDS011;1095;50.992;6.798;2023-09-19T09:55:58;8.95;;;3.90;;
2177;SDS011;1095;50.992;6.798;2023-09-19T09:58:31;10.68;;;3.70;;
2177;SDS011;1095;50.992;6.798;2023-09-19T10:00:58;11.20;;;3.38;;
2177;SDS011;1095;50.992;6.798;2023-09-19T10:03:32;14.90;;;3.70;;
2177;SDS011;1095;50.992;6.798;2023-09-19T10:06:04;13.18;;;3.47;;
2177;SDS011;1095;50.992;6.798;2023-09-19T10:09:02;7.55;;;3.40;;
2177;SDS011;1095;50.992;6.798;2023-09-19T10:11:43;15.57;;;3.60;;
2177;SDS011;1095;50.992;6.798;2023-09-19T10:14:11;9.73;;;3.47;;
2177;SDS011;1095;50.992;6.798;2023-09-19T10:16:49;8.43;;;3.63;;
2177;SDS011;1095;50.992;6.798;2023-09-19T10:19:30;9.10;;;3.63;;
2177;SDS011;1095;50.992;6.798;2023-09-19T10:22:02;5.70;;;3.33;;
2177;SDS011;1095;50.992;6.798;2023-09-19T10:24:34;10.60;;;3.58;;
2177;SDS011;1095;50.992;6.798;2023-09-19T10:27:05;16.40;;;4.28;;
2177;SDS011;1095;50.992;6.798;2023-09-19T10:29:33;8.13;;;3.50;;
2177;SDS011;1095;50.992;6.798;2023-09-19T10:32:02;8.52;;;3.80;;
2177;SDS011;1095;50.992;6.798;2023-09-19T10:34:30;13.13;;;3.72;;
2177;SDS011;1095;50.992;6.798;2023-09-19T10:37:00;11.27;;;4.05;;
2177;SDS011;1095;50.992;6.798;2023-09-19T10:39:30;11.25;;;3.97;;
2177;SDS011;1095;50.992;6.798;2023-09-19T10:42:01;8.32;;;3.63;;
2177;SDS011;1095;50.992;6.798;2023-09-19T10:44:32;11.95;;;4.00;;
2177;SDS011;1095;50.992;6.798;2023-09-19T10:47:05;10.23;;;3.83;;
2177;SDS011;1095;50.992;6.798;2023-09-19T10:49:32;9.43;;;3.50;;
2177;SDS011;1095;50.992;6.798;2023-09-19T10:51:59;9.05;;;3.58;;
2177;SDS011;1095;50.992;6.798;2023-09-19T10:54:30;8.85;;;3.47;;
2177;SDS011;1095;50.992;6.798;2023-09-19T10:57:02;9.60;;;4.15;;
2177;SDS011;1095;50.992;6.798;2023-09-19T10:59:35;10.43;;;3.75;;
2177;SDS011;1095;50.992;6.798;2023-09-19T11:02:15;9.77;;;3.80;;
2177;SDS011;1095;50.992;6.798;2023-09-19T11:04:43;6.97;;;3.95;;
2177;SDS011;1095;50.992;6.798;2023-09-19T11:07:13;10.48;;;3.75;;
2177;SDS011;1095;50.992;6.798;2023-09-19T11:09:43;8.88;;;3.33;;
2177;SDS011;1095;50.992;6.798;2023-09-19T11:12:12;14.52;;;3.78;;
2177;SDS011;1095;50.992;6.798;2023-09-19T11:14:41;10.45;;;4.10;;
2177;SDS011;1095;50.992;6.798;2023-09-19T11:20:17;11.50;;;4.53;;
2177;SDS011;1095;50.992;6.798;2023-09-19T11:25:47;8.15;;;3.65;;
2177;SDS011;1095;50.992;6.798;2023-09-19T11:28:27;10.63;;;3.78;;
2177;SDS011;1095;50.992;6.798;2023-09-19T11:30:59;6.38;;;3.20;;
2177;SDS011;1095;50.992;6.798;2023-09-19T11:40:44;8.23;;;3.88;;
2177;SDS011;1095;50.992;6.798;2023-09-19T11:43:30;12.65;;;4.25;;
2177;SDS011;1095;50.992;6.798;2023-09-19T11:46:09;10.20;;;3.60;;
2177;SDS011;1095;50.992;6.798;2023-09-19T11:48:38;16.05;;;4.53;;
2177;SDS011;1095;50.992;6.798;2023-09-19T11:51:09;9.10;;;3.90;;
2177;SDS011;1095;50.992;6.798;2023-09-19T11:53:44;10.40;;;4.35;;
2177;SDS011;1095;50.992;6.798;2023-09-19T11:56:13;11.70;;;3.65;;
2177;SDS011;1095;50.992;6.798;2023-09-19T11:58:42;7.88;;;3.63;;
2177;SDS011;1095;50.992;6.798;2023-09-19T12:01:13;12.73;;;4.82;;
2177;SDS011;1095;50.992;6.798;2023-09-19T12:03:46;6.75;;;3.30;;
2177;SDS011;1095;50.992;6.798;2023-09-19T12:06:17;9.32;;;3.50;;
2177;SDS011;1095;50.992;6.798;2023-09-19T12:08:44;7.18;;;3.80;;
2177;SDS011;1095;50.992;6.798;2023-09-19T12:11:14;6.13;;;3.65;;
2177;SDS011;1095;50.992;6.798;2023-09-19T12:13:45;6.15;;;3.05;;
2177;SDS011;1095;50.992;6.798;2023-09-19T12:16:17;11.15;;;4.00;;
2177;SDS011;1095;50.992;6.798;2023-09-19T12:18:52;6.13;;;3.28;;
2177;SDS011;1095;50.992;6.798;2023-09-19T12:21:23;9.00;;;3.50;;
2177;SDS011;1095;50.992;6.798;2023-09-19T12:24:06;5.15;;;2.78;;
2177;SDS011;1095;50.992;6.798;2023-09-19T12:26:40;7.00;;;3.60;;
2177;SDS011;1095;50.992;6.798;2023-09-19T12:29:13;8.05;;;3.13;;
2177;SDS011;1095;50.992;6.798;2023-09-19T12:31:51;6.90;;;3.10;;
2177;SDS011;1095;50.992;6.798;2023-09-19T12:34:22;8.68;;;3.53;;
2177;SDS011;1095;50.992;6.798;2023-09-19T12:37:06;7.90;;;3.25;;
2177;SDS011;1095;50.992;6.798;2023-09-19T12:39:46;15.68;;;4.30;;
2177;SDS011;1095;50.992;6.798;2023-09-19T12:42:16;7.35;;;3.05;;
2177;SDS011;1095;50.992;6.798;2023-09-19T12:44:44;8.60;;;3.83;;
2177;SDS011;1095;50.992;6.798;2023-09-19T12:47:17;11.23;;;3.45;;
2177;SDS011;1095;50.992;6.798;2023-09-19T12:50:10;5.60;;;2.83;;
2177;SDS011;1095;50.992;6.798;2023-09-19T12:52:42;9.20;;;3.22;;
2177;SDS011;1095;50.992;6.798;2023-09-19T12:55:22;7.78;;;3.30;;
2177;SDS011;1095;50.992;6.798;2023-09-19T13:04:33;7.65;;;2.78;;
2177;SDS011;1095;50.992;6.798;2023-09-19T13:07:43;4.75;;;2.88;;
2177;SDS011;1095;50.992;6.798;2023-09-19T13:14:14;9.63;;;3.55;;
2177;SDS011;1095;50.992;6.798;2023-09-19T13:24:29;6.32;;;2.80;;
2177;SDS011;1095;50.992;6.798;2023-09-19T13:34:51;6.47;;;2.60;;
2177;SDS011;1095;50.992;6.798;2023-09-19T13:51:15;5.10;;;2.42;;
2177;SDS011;1095;50.992;6.798;2023-09-19T13:57:07;4.97;;;2.25;;
2177;SDS011;1095;50.992;6.798;2023-09-19T14:00:16;6.25;;;2.58;;
2177;SDS011;1095;50.992;6.798;2023-09-19T14:06:11;5.03;;;2.30;;
2177;SDS011;1095;50.992;6.798;2023-09-19T14:09:20;5.78;;;2.22;;
2177;SDS011;1095;50.992;6.798;2023-09-19T14:12:30;4.55;;;2.13;;
2177;SDS011;1095;50.992;6.798;2023-09-19T14:16:06;7.18;;;2.78;;
2177;SDS011;1095;50.992;6.798;2023-09-19T14:22:37;8.10;;;1.90;;
2177;SDS011;1095;50.992;6.798;2023-09-19T14:25:09;5.30;;;2.28;;
2177;SDS011;1095;50.992;6.798;2023-09-19T14:28:06;6.78;;;2.55;;
2177;SDS011;1095;50.992;6.798;2023-09-19T14:30:45;5.68;;;1.95;;
2177;SDS011;1095;50.992;6.798;2023-09-19T14:33:14;6.13;;;1.85;;
2177;SDS011;1095;50.992;6.798;2023-09-19T14:35:48;8.73;;;2.63;;
2177;SDS011;1095;50.992;6.798;2023-09-19T14:38:19;11.38;;;3.50;;
2177;SDS011;1095;50.992;6.798;2023-09-19T14:40:53;8.15;;;2.20;;
2177;SDS011;1095;50.992;6.798;2023-09-19T14:43:44;5.70;;;2.60;;
2177;SDS011;1095;50.992;6.798;2023-09-19T14:46:19;4.65;;;2.17;;
2177;SDS011;1095;50.992;6.798;2023-09-19T14:49:01;7.82;;;2.10;;
2177;SDS011;1095;50.992;6.798;2023-09-19T14:54:29;6.57;;;2.78;;
2177;SDS011;1095;50.992;6.798;2023-09-19T14:57:09;6.68;;;2.28;;
2177;SDS011;1095;50.992;6.798;2023-09-19T14:59:38;6.65;;;1.90;;
2177;SDS011;1095;50.992;6.798;2023-09-19T15:02:10;6.10;;;2.00;;
2177;SDS011;1095;50.992;6.798;2023-09-19T15:04:46;6.00;;;2.13;;
2177;SDS011;1095;50.992;6.798;2023-09-19T15:07:24;6.65;;;2.45;;
2177;SDS011;1095;50.992;6.798;2023-09-19T15:09:54;2.92;;;1.95;;
2177;SDS011;1095;50.992;6.798;2023-09-19T15:12:37;5.55;;;2.25;;
2177;SDS011;1095;50.992;6.798;2023-09-19T15:15:07;5.65;;;2.17;;
2177;SDS011;1095;50.992;6.798;2023-09-19T15:17:51;3.00;;;1.73;;
2177;SDS011;1095;50.992;6.798;2023-09-19T15:20:34;3.45;;;1.70;;
2177;SDS011;1095;50.992;6.798;2023-09-19T15:23:22;6.63;;;2.45;;
2177;SDS011;1095;50.992;6.798;2023-09-19T15:25:56;3.40;;;1.90;;
2177;SDS011;1095;50.992;6.798;2023-09-19T15:28:29;7.78;;;2.20;;
2177;SDS011;1095;50.992;6.798;2023-09-19T15:31:19;3.92;;;2.38;;
2177;SDS011;1095;50.992;6.798;2023-09-19T15:33:48;3.50;;;1.70;;
2177;SDS011;1095;50.992;6.798;2023-09-19T15:36:15;3.40;;;1.80;;
2177;SDS011;1095;50.992;6.798;2023-09-19T15:39:02;5.45;;;2.00;;
2177;SDS011;1095;50.992;6.798;2023-09-19T15:44:21;6.07;;;2.08;;
2177;SDS011;1095;50.992;6.798;2023-09-19T15:46:49;5.30;;;2.20;;
2177;SDS011;1095;50.992;6.798;2023-09-19T15:49:17;3.75;;;1.73;;
2177;SDS011;1095;50.992;6.798;2023-09-19T15:51:48;5.15;;;1.92;;
2177;SDS011;1095;50.992;6.798;2023-09-19T15:54:25;4.57;;;1.90;;
2177;SDS011;1095;50.992;6.798;2023-09-19T15:57:00;6.07;;;2.33;;
2177;SDS011;1095;50.992;6.798;2023-09-19T15:59:29;5.68;;;2.45;;
2177;SDS011;1095;50.992;6.798;2023-09-19T16:01:59;7.32;;;2.13;;
2177;SDS011;1095;50.992;6.798;2023-09-19T16:07:13;3.78;;;2.03;;
2177;SDS011;1095;50.992;6.798;2023-09-19T16:09:45;4.30;;;1.95;;
2177;SDS011;1095;50.992;6.798;2023-09-19T16:12:27;7.05;;;2.92;;
2177;SDS011;1095;50.992;6.798;2023-09-19T16:14:59;5.20;;;2.72;;
2177;SDS011;1095;50.992;6.798;2023-09-19T16:17:28;4.25;;;2.70;;
2177;SDS011;1095;50.992;6.798;2023-09-19T16:19:55;6.25;;;1.90;;
2177;SDS011;1095;50.992;6.798;2023-09-19T16:22:22;9.68;;;3.72;;
2177;SDS011;1095;50.992;6.798;2023-09-19T16:24:59;12.55;;;4.65;;
2177;SDS011;1095;50.992;6.798;2023-09-19T16:27:48;9.52;;;3.90;;
2177;SDS011;1095;50.992;6.798;2023-09-19T16:30:14;8.63;;;3.08;;
2177;SDS011;1095;50.992;6.798;2023-09-19T16:32:44;5.55;;;2.40;;
2177;SDS011;1095;50.992;6.798;2023-09-19T16:35:25;6.50;;;2.65;;
2177;SDS011;1095;50.992;6.798;2023-09-19T16:37:54;4.60;;;2.15;;
2177;SDS011;1095;50.992;6.798;2023-09-19T16:40:21;5.60;;;2.33;;
2177;SDS011;1095;50.992;6.798;2023-09-19T16:42:51;6.07;;;1.90;;
2177;SDS011;1095;50.992;6.798;2023-09-19T16:45:20;6.40;;;2.42;;
2177;SDS011;1095;50.992;6.798;2023-09-19T16:47:47;6.18;;;2.42;;
2177;SDS011;1095;50.992;6.798;2023-09-19T16:50:14;6.00;;;2.40;;
2177;SDS011;1095;50.992;6.798;2023-09-19T16:52:41;5.50;;;2.35;;
2177;SDS011;1095;50.992;6.798;2023-09-19T16:55:07;5.95;;;3.10;;
2177;SDS011;1095;50.992;6.798;2023-09-19T16:57:34;4.68;;;2.30;;
2177;SDS011;1095;50.992;6.798;2023-09-19T17:00:03;4.90;;;1.95;;
2177;SDS011;1095;50.992;6.798;2023-09-19T17:02:29;5.78;;;2.53;;
2177;SDS011;1095;50.992;6.798;2023-09-19T17:04:56;4.63;;;2.03;;
2177;SDS011;1095;50.992;6.798;2023-09-19T17:07:23;3.83;;;2.17;;
2177;SDS011;1095;50.992;6.798;2023-09-19T17:09:50;4.90;;;2.42;;
2177;SDS011;1095;50.992;6.798;2023-09-19T17:12:17;8.20;;;2.95;;
2177;SDS011;1095;50.992;6.798;2023-09-19T17:14:44;4.78;;;2.35;;
2177;SDS011;1095;50.992;6.798;2023-09-19T17:17:12;4.65;;;2.03;;